Etusivu
METAR-TAF:

METAR-TAF

Lentoasemat :

Weno, Weno Island, Mikronesia

Leveyspiiri: 07-28N, Pituuspiiri: 151-51E, korkeus merenpinnasta: 3 m

Tämänhetkinen sää

Tämä raportti tehtiin 56 minuuttia sitten, kello 17.52 UTC
tyyntä
Lämpötila 26°C
Kosteus 84%
Ilmanpaine 1008 hPa
Näkyvyys: 24.1 km
Muutamia pilviä 1400 ft:n korkeudessa
Hajanaisia pilviä 29000 ft:n korkeudessa

METAR: PTKK 231752Z 00000KT 15SM FEW014 SCT290 26/23 A2977 RMK SLP084 8/101 T02560234 10267 20256 56008

Aika: 04:48 (18:48 UTC)

Sääennuste

Tämä raportti tehtiin 1 tunti ja 28 minuuttia sitten, kello 17.20 UTC
Ennuste voimassa 23. päivästä klo 18 UTC - 24. päivään klo 18 UTC
Tuuli 4 kn eri suunnista
Näkyvyys: 10 km
Muutamia pilviä 1400 ft:n korkeudessa
Hajonneita pilviä 15000 ft:n korkeudessa
sadekuuroja näköpiirissä

TAF: PTKK 231720Z 2318/2418 VRB04KT P6SM VCSH FEW014 BKN150

Säähavainnot ja -ennusteet yli 4000 lentoasemalta (METAR- ja TAF-raportit).

Käytössä olevat sääasemat on merkitty karttaan keltaisilla ja punaisilla pisteillä.

Aseta hiiri pisteen päälle nähdäksesi sääaseman nimen.

Klikkaa sitten nähdäksesi säähavainnot ja -ennusteet.

Kartan vaihtaminen: klikkaa mustalla rastilla varustettuja vihreitä pisteitä, niin voit zoomata sisään; viivalla varustettua vihreää pistettä, niin voit zoomata ulos tai vihreitä nuolia, niin pääset viereisille kartoille.


METAR-TAF: